Time;durP1;ratioP1;P1;durP2;ratioP2;P2;SDS_P1;SDS_P2;PMS_P1;PMS_P2;Temp;Humidity;BMP_temperature;BMP_pressure;BME280_temperature;BME280_humidity;BME280_pressure;Samples;Min_cycle;Max_cycle;Signal;HPM_P1;HPM_P2
2021/05/19 00:00:02;;;;;;;4.95;4.45;;;19.00;51.30;;;;;;6166008;23;20137;-79
2021/05/19 00:02:27;;;;;;;4.50;4.10;;;19.00;51.30;;;;;;6166295;23;20161;-79
2021/05/19 00:04:53;;;;;;;4.50;4.10;;;19.00;51.30;;;;;;6192792;23;20202;-80
2021/05/19 00:07:19;;;;;;;5.35;4.65;;;19.00;51.40;;;;;;6165914;23;20135;-80
2021/05/19 00:09:45;;;;;;;5.15;4.65;;;19.00;51.40;;;;;;6166615;23;20138;-79
2021/05/19 00:12:10;;;;;;;5.10;4.60;;;19.00;51.50;;;;;;6165814;23;20540;-80
2021/05/19 00:14:36;;;;;;;4.78;4.28;;;19.00;51.40;;;;;;6191775;23;20146;-79
2021/05/19 00:17:02;;;;;;;4.93;4.43;;;19.00;51.40;;;;;;6165493;23;20135;-80
2021/05/19 00:19:28;;;;;;;5.03;4.53;;;18.90;51.40;;;;;;6166374;23;20571;-80
2021/05/19 00:21:53;;;;;;;4.80;4.30;;;18.90;51.50;;;;;;6191728;23;20215;-80
2021/05/19 00:24:19;;;;;;;5.15;4.60;;;19.00;51.60;;;;;;6141254;23;20585;-80
2021/05/19 00:26:44;;;;;;;4.65;4.18;;;19.00;51.60;;;;;;6165802;23;20591;-80
2021/05/19 00:29:13;;;;;;;4.75;4.35;;;18.90;51.50;;;;;;6192161;23;20174;-80
2021/05/19 00:31:41;;;;;;;4.63;4.22;;;18.90;51.50;;;;;;6166534;23;20191;-80
2021/05/19 00:34:13;;;;;;;4.95;4.45;;;18.90;51.50;;;;;;6165276;23;20139;-80
2021/05/19 00:36:39;;;;;;;4.80;4.32;;;18.90;51.50;;;;;;6165969;23;20155;-80
2021/05/19 00:39:14;;;;;;;4.90;4.40;;;18.90;51.50;;;;;;6141298;23;20578;-80
2021/05/19 00:41:41;;;;;;;4.72;4.22;;;19.00;51.50;;;;;;6192393;23;20213;-80
2021/05/19 00:44:14;;;;;;;5.07;4.47;;;19.00;51.40;;;;;;6141617;23;20214;-80
2021/05/19 00:46:46;;;;;;;4.55;4.15;;;18.90;51.50;;;;;;6192451;23;20143;-80
2021/05/19 00:49:12;;;;;;;4.70;4.30;;;18.90;51.50;;;;;;6165937;23;20171;-80
2021/05/19 00:51:38;;;;;;;4.93;4.43;;;18.90;51.40;;;;;;6191751;23;20203;-80
2021/05/19 00:54:04;;;;;;;5.15;4.65;;;18.90;51.50;;;;;;6191538;23;20567;-81
2021/05/19 00:56:29;;;;;;;4.95;4.45;;;19.00;51.50;;;;;;6192632;23;20139;-80
2021/05/19 00:59:00;;;;;;;5.20;4.70;;;18.90;51.50;;;;;;6165988;23;20145;-80
2021/05/19 01:01:26;;;;;;;4.60;4.20;;;18.90;51.50;;;;;;6166167;23;20135;-80
2021/05/19 01:03:53;;;;;;;4.90;4.15;;;18.90;51.50;;;;;;6165440;23;20154;-80
2021/05/19 01:06:25;;;;;;;4.95;4.45;;;18.90;51.50;;;;;;6191779;23;20131;-80
2021/05/19 01:11:38;;;;;;;5.80;4.57;;;18.90;51.50;;;;;;6109494;23;20152;-80
2021/05/19 01:14:04;;;;;;;5.00;4.50;;;18.90;51.60;;;;;;6105341;23;20172;-79
2021/05/19 01:16:30;;;;;;;5.20;4.70;;;18.90;51.50;;;;;;6105517;23;20152;-80
2021/05/19 01:18:58;;;;;;;4.95;4.43;;;18.90;51.50;;;;;;6129685;23;20510;-79
2021/05/19 01:21:24;;;;;;;5.00;4.45;;;18.90;51.50;;;;;;6104391;23;20144;-80
2021/05/19 01:23:50;;;;;;;5.00;4.50;;;18.90;51.60;;;;;;6105552;23;20189;-80
2021/05/19 01:26:18;;;;;;;5.10;4.60;;;18.90;51.60;;;;;;6129699;23;20140;-80
2021/05/19 01:28:43;;;;;;;5.03;4.53;;;18.90;51.60;;;;;;6129009;23;20211;-79
2021/05/19 01:31:10;;;;;;;4.90;4.40;;;18.90;51.60;;;;;;6106274;23;20136;-80
2021/05/19 01:33:36;;;;;;;4.80;4.30;;;18.90;51.70;;;;;;6080789;23;20152;-80
2021/05/19 01:36:02;;;;;;;4.88;4.38;;;18.90;51.70;;;;;;6104618;23;20202;-79
2021/05/19 01:38:29;;;;;;;4.82;4.32;;;18.90;51.70;;;;;;6105199;23;20140;-80
2021/05/19 01:40:54;;;;;;;5.00;4.50;;;18.90;51.70;;;;;;6129418;23;20141;-79
2021/05/19 01:43:29;;;;;;;5.20;4.70;;;18.90;51.70;;;;;;6128985;23;20607;-80
2021/05/19 01:45:58;;;;;;;4.72;4.30;;;18.90;51.70;;;;;;6129555;23;20132;-79
2021/05/19 01:48:32;;;;;;;5.00;4.50;;;18.90;51.60;;;;;;6152863;23;20190;-79
2021/05/19 01:50:58;;;;;;;5.03;4.53;;;18.90;51.70;;;;;;6165451;23;20130;-81
2021/05/19 01:53:25;;;;;;;5.28;4.78;;;18.90;51.70;;;;;;6140552;23;20186;-80
2021/05/19 01:55:51;;;;;;;5.05;4.55;;;18.90;51.70;;;;;;6116286;23;20181;-80
2021/05/19 01:58:18;;;;;;;5.82;4.75;;;18.90;51.70;;;;;;6165491;23;20470;-80
2021/05/19 02:00:45;;;;;;;5.10;4.57;;;18.90;51.70;;;;;;6190611;23;20135;-80
2021/05/19 02:03:11;;;;;;;4.95;4.47;;;18.90;51.70;;;;;;6164826;23;20571;-79
2021/05/19 02:05:38;;;;;;;5.00;4.50;;;18.80;51.60;;;;;;6165374;23;20127;-80
2021/05/19 02:08:06;;;;;;;5.32;4.82;;;18.80;51.60;;;;;;6190610;23;20167;-80
2021/05/19 02:10:32;;;;;;;4.97;4.47;;;18.80;51.60;;;;;;6140712;23;20134;-80
2021/05/19 02:12:59;;;;;;;4.97;4.47;;;18.90;51.70;;;;;;6163874;23;20166;-81
2021/05/19 02:15:25;;;;;;;4.82;4.32;;;18.80;51.70;;;;;;6140340;23;20563;-80
2021/05/19 02:17:51;;;;;;;5.00;4.50;;;18.90;51.70;;;;;;6139863;23;20185;-80
2021/05/19 02:20:19;;;;;;;5.30;4.80;;;18.90;51.70;;;;;;6164726;23;20147;-79
2021/05/19 02:22:44;;;;;;;5.35;4.85;;;18.90;51.70;;;;;;6164405;23;20152;-80
2021/05/19 02:25:11;;;;;;;4.95;4.45;;;18.80;51.70;;;;;;6190480;23;20455;-80
2021/05/19 02:27:38;;;;;;;5.25;4.75;;;18.80;51.70;;;;;;6164712;23;20166;-80
2021/05/19 02:30:09;;;;;;;5.25;4.75;;;18.80;51.70;;;;;;6165020;23;20135;-81
2021/05/19 02:32:34;;;;;;;5.03;4.53;;;18.80;51.80;;;;;;6141584;23;20575;-80
2021/05/19 02:35:00;;;;;;;5.30;4.80;;;18.80;51.80;;;;;;6139373;23;20198;-80
2021/05/19 02:37:28;;;;;;;5.47;4.93;;;18.80;51.80;;;;;;6115418;23;20214;-79
2021/05/19 02:39:55;;;;;;;5.38;4.88;;;18.80;51.70;;;;;;6165019;23;20218;-79
2021/05/19 02:42:21;;;;;;;5.40;4.90;;;18.90;51.80;;;;;;6190634;23;20139;-80
2021/05/19 02:44:48;;;;;;;5.10;4.60;;;18.90;51.80;;;;;;6115810;23;20237;-80
2021/05/19 02:47:15;;;;;;;5.22;4.72;;;18.80;51.80;;;;;;6139765;23;20153;-81
2021/05/19 02:49:41;;;;;;;5.60;5.03;;;18.80;51.80;;;;;;6140438;23;20158;-79
2021/05/19 02:52:06;;;;;;;5.15;4.65;;;18.80;51.80;;;;;;6164687;23;20139;-81
2021/05/19 02:54:33;;;;;;;5.38;4.88;;;18.80;51.80;;;;;;6164321;23;20557;-80
2021/05/19 02:57:01;;;;;;;4.90;4.40;;;18.80;51.80;;;;;;6139406;23;20139;-80
2021/05/19 02:59:27;;;;;;;5.30;4.80;;;18.80;51.80;;;;;;6163859;23;20131;-80
2021/05/19 03:01:52;;;;;;;5.18;4.68;;;18.80;51.90;;;;;;6164841;23;20141;-80
2021/05/19 03:04:18;;;;;;;5.03;4.53;;;18.80;51.90;;;;;;6166203;23;20130;-80
2021/05/19 03:06:44;;;;;;;5.18;4.68;;;18.80;51.80;;;;;;6141144;23;20142;-80
2021/05/19 03:09:09;;;;;;;5.00;4.50;;;18.80;51.90;;;;;;6140912;23;20615;-81
2021/05/19 03:11:36;;;;;;;5.63;4.80;;;18.80;51.90;;;;;;6192081;23;20135;-80
2021/05/19 03:14:03;;;;;;;5.15;4.65;;;18.80;51.90;;;;;;6165658;23;20134;-80
2021/05/19 03:16:37;;;;;;;5.18;4.68;;;18.80;51.90;;;;;;6191897;23;20146;-79
2021/05/19 03:19:04;;;;;;;5.45;4.85;;;18.80;51.90;;;;;;6192730;23;20139;-80
2021/05/19 03:21:30;;;;;;;5.40;4.80;;;18.80;51.90;;;;;;6141474;23;20209;-80
2021/05/19 03:23:56;;;;;;;5.30;4.80;;;18.80;51.90;;;;;;6192013;23;20135;-81
2021/05/19 03:26:23;;;;;;;5.20;4.70;;;18.80;51.90;;;;;;6140898;23;20181;-81
2021/05/19 03:28:49;;;;;;;5.15;4.65;;;18.80;51.90;;;;;;6191423;23;20170;-80
2021/05/19 03:31:16;;;;;;;5.20;4.60;;;18.80;51.90;;;;;;6165509;23;20467;-80
2021/05/19 03:33:42;;;;;;;5.05;4.57;;;18.80;51.90;;;;;;6165640;23;20622;-80
2021/05/19 03:36:09;;;;;;;5.28;4.78;;;18.80;51.90;;;;;;6166147;23;20244;-80
2021/05/19 03:38:36;;;;;;;5.65;4.70;;;18.80;51.90;;;;;;6192070;23;20135;-80
2021/05/19 03:41:02;;;;;;;5.15;4.65;;;18.80;51.90;;;;;;6165702;23;20187;-81
2021/05/19 03:43:32;;;;;;;5.30;4.80;;;18.80;52.00;;;;;;6192099;23;20135;-80
2021/05/19 03:46:02;;;;;;;5.20;4.70;;;18.80;52.00;;;;;;6192317;23;20131;-80
2021/05/19 03:48:28;;;;;;;4.95;4.50;;;18.70;51.90;;;;;;6190975;23;20607;-80
2021/05/19 03:50:55;;;;;;;5.18;4.68;;;18.80;51.90;;;;;;6191148;23;20460;-80
2021/05/19 03:53:21;;;;;;;5.20;4.70;;;18.80;52.00;;;;;;6164538;23;20142;-80
2021/05/19 03:55:48;;;;;;;5.65;4.57;;;18.80;52.00;;;;;;6165224;23;20131;-79
2021/05/19 03:58:14;;;;;;;5.20;4.70;;;18.80;52.00;;;;;;6164429;23;20158;-79
2021/05/19 04:00:41;;;;;;;5.38;4.88;;;18.70;52.00;;;;;;6191124;23;20571;-80
2021/05/19 04:03:15;;;;;;;5.20;4.53;;;18.80;52.10;;;;;;6165175;23;20131;-80
2021/05/19 04:05:42;;;;;;;4.78;4.32;;;18.70;52.00;;;;;;6165699;23;20184;-80
2021/05/19 04:08:09;;;;;;;5.40;4.90;;;18.70;52.00;;;;;;6164779;23;20185;-80
2021/05/19 04:10:35;;;;;;;5.20;4.70;;;18.80;51.90;;;;;;6164395;23;20139;-79
2021/05/19 04:13:05;;;;;;;4.93;4.43;;;18.80;52.00;;;;;;6164490;23;20131;-79
2021/05/19 04:15:32;;;;;;;5.10;4.60;;;18.80;52.10;;;;;;6165699;23;20138;-79
2021/05/19 04:17:58;;;;;;;5.15;4.65;;;18.70;52.10;;;;;;6166150;23;20134;-80
2021/05/19 04:20:24;;;;;;;5.13;4.63;;;18.70;52.10;;;;;;6165103;23;20147;-80
2021/05/19 04:22:51;;;;;;;5.05;4.55;;;18.70;52.10;;;;;;6191105;23;20135;-79
2021/05/19 04:25:17;;;;;;;5.30;4.80;;;18.70;52.20;;;;;;6191511;23;20201;-80
2021/05/19 04:27:44;;;;;;;4.78;4.28;;;18.70;52.20;;;;;;6164392;23;20606;-81
2021/05/19 04:30:12;;;;;;;5.63;4.22;;;18.70;52.10;;;;;;6191711;23;20142;-80
2021/05/19 04:32:39;;;;;;;4.68;4.22;;;18.70;52.00;;;;;;6191805;23;20143;-81
2021/05/19 04:35:06;;;;;;;5.07;4.57;;;18.70;52.00;;;;;;6164266;23;20197;-79
2021/05/19 04:37:32;;;;;;;5.07;4.57;;;18.70;52.10;;;;;;6139930;23;20233;-80
2021/05/19 04:39:59;;;;;;;5.25;4.75;;;18.80;52.00;;;;;;6164708;23;20138;-80
2021/05/19 04:42:25;;;;;;;5.90;5.30;;;18.70;52.00;;;;;;6164722;23;20479;-80
2021/05/19 04:44:51;;;;;;;4.60;4.20;;;18.80;52.00;;;;;;6190982;23;20131;-80
2021/05/19 04:47:18;;;;;;;4.97;4.47;;;18.80;52.00;;;;;;6164777;23;20157;-81
2021/05/19 04:49:44;;;;;;;4.68;4.28;;;18.80;52.00;;;;;;6164174;23;20138;-80
2021/05/19 04:52:11;;;;;;;4.68;4.18;;;18.80;51.90;;;;;;6190564;23;20139;-80
2021/05/19 04:54:37;;;;;;;5.05;4.55;;;18.80;51.80;;;;;;6164456;23;20153;-80
2021/05/19 04:57:12;;;;;;;4.95;4.45;;;18.80;51.80;;;;;;6164633;23;20222;-80
2021/05/19 04:59:39;;;;;;;4.88;4.38;;;18.80;51.80;;;;;;6191024;23;20209;-81
2021/05/19 05:02:13;;;;;;;4.38;3.97;;;18.80;51.80;;;;;;6190940;23;20135;-80
2021/05/19 05:04:39;;;;;;;4.57;4.18;;;18.80;51.80;;;;;;6164146;23;20154;-80
2021/05/19 05:07:05;;;;;;;5.07;4.57;;;18.80;51.80;;;;;;6163085;23;20146;-81
2021/05/19 05:09:31;;;;;;;5.03;4.53;;;18.80;51.80;;;;;;6139634;23;20497;-80
2021/05/19 05:11:56;;;;;;;4.22;3.83;;;18.80;51.80;;;;;;6165110;23;20234;-81
2021/05/19 05:14:23;;;;;;;4.20;3.80;;;18.80;51.80;;;;;;6141200;23;20135;-80
2021/05/19 05:16:49;;;;;;;4.75;4.25;;;18.80;51.80;;;;;;6192583;23;20126;-80
2021/05/19 05:19:17;;;;;;;4.75;4.25;;;18.90;51.80;;;;;;6141996;23;20535;-80
2021/05/19 05:21:51;;;;;;;5.03;4.55;;;18.90;51.80;;;;;;6166833;23;20213;-81
2021/05/19 05:24:16;;;;;;;4.80;4.30;;;18.90;51.80;;;;;;6166557;23;20139;-80
2021/05/19 05:26:43;;;;;;;4.55;4.15;;;18.90;51.80;;;;;;6167487;23;20153;-80
2021/05/19 05:29:10;;;;;;;4.80;4.30;;;18.90;51.80;;;;;;6193081;23;20162;-80
2021/05/19 05:31:44;;;;;;;4.82;4.32;;;18.90;51.70;;;;;;6167003;23;20478;-80
2021/05/19 05:34:10;;;;;;;4.28;3.88;;;18.90;51.70;;;;;;6166581;23;20146;-80
2021/05/19 05:36:35;;;;;;;4.78;4.38;;;18.90;51.70;;;;;;6165585;23;20150;-82
2021/05/19 05:39:01;;;;;;;4.35;3.95;;;18.90;51.70;;;;;;6164732;23;20139;-79
2021/05/19 05:41:28;;;;;;;4.47;4.07;;;18.90;51.70;;;;;;6141306;23;20200;-81
2021/05/19 05:43:54;;;;;;;5.13;4.63;;;18.90;51.80;;;;;;6192083;23;20238;-80
2021/05/19 05:46:20;;;;;;;6.03;4.38;;;18.90;51.70;;;;;;6141340;23;20139;-80
2021/05/19 05:48:47;;;;;;;5.05;4.55;;;18.90;51.70;;;;;;6141494;23;20542;-79
2021/05/19 05:51:17;;;;;;;4.35;3.95;;;19.00;51.70;;;;;;6115961;23;20223;-81
2021/05/19 05:53:43;;;;;;;4.35;3.95;;;18.90;51.70;;;;;;6191177;23;20210;-80
2021/05/19 05:56:09;;;;;;;4.18;3.78;;;18.90;51.70;;;;;;6190740;23;20135;-81
2021/05/19 05:58:36;;;;;;;4.18;3.78;;;19.00;51.70;;;;;;6164398;23;20225;-81
2021/05/19 06:01:03;;;;;;;4.88;4.07;;;18.90;51.70;;;;;;6193933;23;20210;-80
2021/05/19 06:03:29;;;;;;;4.47;4.05;;;19.00;51.70;;;;;;6196406;23;20131;-81
2021/05/19 06:05:54;;;;;;;4.28;3.88;;;19.00;51.70;;;;;;6168230;23;20138;-79
2021/05/19 06:08:22;;;;;;;4.65;4.15;;;19.00;51.70;;;;;;6197553;23;20170;-80
2021/05/19 06:10:48;;;;;;;4.97;4.22;;;19.00;51.70;;;;;;6197333;23;20131;-80
2021/05/19 06:13:15;;;;;;;4.40;4.00;;;19.00;51.70;;;;;;6171399;23;20201;-80
2021/05/19 06:15:41;;;;;;;4.40;4.00;;;19.00;51.70;;;;;;6173015;23;20142;-80
2021/05/19 06:18:07;;;;;;;4.47;4.07;;;19.00;51.70;;;;;;6173276;23;20135;-79
2021/05/19 06:20:34;;;;;;;4.25;3.83;;;19.00;51.70;;;;;;6123646;23;20169;-79
2021/05/19 06:23:00;;;;;;;4.60;4.20;;;19.00;51.60;;;;;;6147603;23;20135;-79
2021/05/19 06:25:27;;;;;;;4.22;3.83;;;19.00;51.60;;;;;;6169050;23;20166;-79
2021/05/19 06:27:53;;;;;;;4.63;4.20;;;19.00;51.60;;;;;;6165900;23;20190;-80
2021/05/19 06:30:20;;;;;;;4.70;3.97;;;19.00;51.60;;;;;;6144462;23;20587;-79
2021/05/19 06:32:45;;;;;;;4.80;4.30;;;19.00;51.70;;;;;;6118036;23;20233;-82
2021/05/19 06:35:11;;;;;;;4.32;3.92;;;18.90;51.80;;;;;;6189508;23;20665;-83
2021/05/19 06:37:37;;;;;;;4.38;3.65;;;19.00;51.80;;;;;;6136271;23;20470;-83
2021/05/19 06:40:06;;;;;;;4.45;4.05;;;18.90;51.80;;;;;;6136438;23;20217;-82
2021/05/19 06:42:32;;;;;;;4.78;4.28;;;18.90;51.90;;;;;;6137176;23;20477;-81
2021/05/19 06:44:58;;;;;;;4.47;4.07;;;18.90;51.80;;;;;;6136531;23;20166;-82
2021/05/19 06:47:25;;;;;;;4.47;3.90;;;18.90;51.90;;;;;;6187082;23;20131;-82
2021/05/19 06:49:54;;;;;;;4.72;4.15;;;18.90;51.90;;;;;;6136120;23;20151;-80
2021/05/19 06:52:20;;;;;;;5.93;4.10;;;18.90;51.90;;;;;;6112645;23;20143;-80
2021/05/19 06:54:46;;;;;;;4.55;4.13;;;18.90;52.00;;;;;;6112149;23;20142;-80
2021/05/19 06:57:11;;;;;;;4.28;3.88;;;18.90;52.60;;;;;;6160958;23;20150;-81
2021/05/19 06:59:37;;;;;;;4.60;4.18;;;18.90;52.00;;;;;;6161747;23;20468;-82
2021/05/19 07:02:03;;;;;;;4.47;4.03;;;19.00;52.00;;;;;;6188333;23;20131;-82
2021/05/19 07:04:29;;;;;;;4.68;3.92;;;19.00;51.90;;;;;;6136723;23;20138;-81
2021/05/19 07:06:54;;;;;;;4.30;3.90;;;19.00;51.90;;;;;;6162079;23;20131;-82
2021/05/19 07:09:20;;;;;;;4.07;3.67;;;19.00;51.80;;;;;;6137154;23;20170;-82
2021/05/19 07:11:46;;;;;;;4.15;3.75;;;19.00;51.90;;;;;;6161421;23;20131;-82
2021/05/19 07:14:16;;;;;;;4.35;3.78;;;19.00;51.90;;;;;;6161343;23;20189;-82
2021/05/19 07:16:51;;;;;;;4.20;3.70;;;19.00;52.00;;;;;;6188403;23;20127;-81
2021/05/19 07:19:21;;;;;;;4.13;3.70;;;19.00;51.90;;;;;;6143836;23;20550;-80
2021/05/19 07:21:47;;;;;;;4.22;3.83;;;19.00;51.80;;;;;;6141648;23;20162;-82
2021/05/19 07:24:13;;;;;;;4.45;3.88;;;19.00;51.70;;;;;;6164327;23;20131;-83
2021/05/19 07:26:44;;;;;;;4.35;3.95;;;19.10;51.70;;;;;;6187833;23;20209;-83
2021/05/19 07:29:10;;;;;;;5.10;4.03;;;19.10;51.80;;;;;;6187843;23;20205;-86
2021/05/19 07:31:36;;;;;;;4.45;4.05;;;19.10;51.70;;;;;;6137371;23;20127;-82
2021/05/19 07:34:02;;;;;;;4.05;3.65;;;19.10;51.60;;;;;;6161281;23;20457;-82
2021/05/19 07:36:28;;;;;;;4.50;4.10;;;19.10;51.70;;;;;;6112186;23;20162;-83
2021/05/19 07:38:54;;;;;;;4.28;3.88;;;19.10;51.70;;;;;;6113542;23;20155;-82
2021/05/19 07:41:23;;;;;;;4.20;3.80;;;19.10;51.70;;;;;;6161078;23;20127;-83
2021/05/19 07:43:49;;;;;;;4.20;3.80;;;19.00;51.90;;;;;;6187566;23;20163;-81
2021/05/19 07:46:15;;;;;;;4.78;3.80;;;19.10;51.90;;;;;;6137891;23;20570;-83
2021/05/19 07:48:41;;;;;;;4.75;3.75;;;19.20;51.80;;;;;;6112187;23;20273;-82
2021/05/19 07:51:08;;;;;;;5.13;3.80;;;19.20;51.70;;;;;;6161632;23;20127;-82
2021/05/19 07:53:43;;;;;;;4.22;3.83;;;19.20;51.60;;;;;;6163094;23;20136;-83
2021/05/19 07:59:03;;;;;;;4.18;3.75;;;19.20;51.60;;;;;;6188002;23;20146;-83
2021/05/19 08:03:53;;;;;;;4.00;3.60;;;19.20;51.50;;;;;;6162448;23;20135;-82
2021/05/19 08:06:20;;;;;;;4.07;3.67;;;19.20;51.60;;;;;;6137841;23;20127;-83
2021/05/19 08:08:45;;;;;;;3.90;3.60;;;19.30;51.50;;;;;;6136083;23;20229;-82
2021/05/19 08:11:11;;;;;;;4.20;3.80;;;19.20;51.40;;;;;;6136139;23;20150;-83
2021/05/19 08:13:41;;;;;;;5.75;3.53;;;19.30;51.60;;;;;;6111994;23;20147;-78
2021/05/19 08:16:07;;;;;;;6.40;3.63;;;19.30;51.50;;;;;;6193217;23;20127;-81
2021/05/19 08:18:34;;;;;;;9.25;3.67;;;19.30;51.50;;;;;;6171055;23;20135;-79
2021/05/19 08:21:03;;;;;;;7.30;3.50;;;19.30;51.40;;;;;;6142241;23;20166;-80
2021/05/19 08:23:30;;;;;;;8.90;3.67;;;19.30;51.40;;;;;;6189372;23;20162;-82
2021/05/19 08:25:56;;;;;;;7.28;3.88;;;19.40;51.40;;;;;;6112996;23;20496;-81
2021/05/19 08:28:22;;;;;;;6.50;3.60;;;19.30;51.40;;;;;;6188363;23;20162;-80
2021/05/19 08:30:48;;;;;;;7.25;4.03;;;19.40;51.30;;;;;;6139404;23;20150;-83
2021/05/19 08:33:16;;;;;;;9.70;4.07;;;19.40;51.30;;;;;;6165041;23;20602;-81
2021/05/19 08:35:45;;;;;;;13.88;4.00;;;19.40;51.30;;;;;;6164306;23;20194;-85
2021/05/19 08:38:13;;;;;;;9.93;3.88;;;19.40;51.40;;;;;;6142279;23;20155;-78
2021/05/19 08:40:39;;;;;;;12.40;4.07;;;19.40;51.50;;;;;;6165528;23;20135;-80
2021/05/19 08:43:05;;;;;;;18.50;4.20;;;19.40;51.50;;;;;;6189567;23;20141;-81
2021/05/19 08:45:31;;;;;;;14.85;4.25;;;19.40;51.60;;;;;;6135432;23;20147;-80
2021/05/19 08:48:00;;;;;;;19.33;4.15;;;19.50;51.50;;;;;;6160472;23;20180;-82
2021/05/19 08:50:25;;;;;;;8.20;3.63;;;19.50;51.40;;;;;;6113870;23;20150;-81
2021/05/19 08:52:52;;;;;;;9.57;4.28;;;19.40;51.50;;;;;;6113514;23;20159;-81
2021/05/19 08:55:19;;;;;;;14.07;3.67;;;19.50;51.50;;;;;;6192716;23;20182;-82
2021/05/19 08:57:46;;;;;;;14.82;4.15;;;19.50;51.70;;;;;;6138231;23;20196;-81
2021/05/19 09:00:16;;;;;;;9.55;3.88;;;19.50;51.80;;;;;;6137817;23;20150;-81
2021/05/19 09:03:10;;;;;;;13.55;3.75;;;19.40;51.90;;;;;;6136398;23;20533;-81
2021/05/19 09:05:38;;;;;;;15.85;4.38;;;19.40;51.90;;;;;;6043713;23;20500;-82
2021/05/19 09:08:12;;;;;;;8.52;4.07;;;19.50;52.00;;;;;;6019968;23;20185;-81
2021/05/19 09:10:40;;;;;;;12.13;3.72;;;19.50;52.00;;;;;;6020120;23;20153;-83
2021/05/19 09:13:06;;;;;;;7.47;3.30;;;19.50;52.00;;;;;;6021177;23;20146;-81
2021/05/19 09:15:48;;;;;;;16.30;3.83;;;19.50;51.90;;;;;;6043421;23;20255;-81
2021/05/19 09:18:14;;;;;;;5.85;3.30;;;19.60;51.70;;;;;;6043341;23;20164;-82
2021/05/19 09:20:46;;;;;;;15.05;4.38;;;19.60;51.70;;;;;;6066829;23;20601;-79
2021/05/19 09:23:17;;;;;;;14.15;3.50;;;19.60;51.70;;;;;;6021780;23;20181;-80
2021/05/19 09:25:43;;;;;;;5.65;3.50;;;19.50;51.80;;;;;;6024816;23;20620;-80
2021/05/19 09:28:09;;;;;;;9.93;3.42;;;19.60;51.90;;;;;;6023224;23;20256;-80
2021/05/19 09:30:39;;;;;;;11.32;3.47;;;19.60;51.90;;;;;;6046676;23;20636;-84
2021/05/19 09:33:18;;;;;;;6.80;3.28;;;19.60;51.90;;;;;;6021234;23;20157;-84
2021/05/19 09:35:45;;;;;;;16.08;4.00;;;19.60;52.60;;;;;;6045435;23;20259;-82
2021/05/19 09:38:29;;;;;;;9.50;3.25;;;19.60;51.80;;;;;;6026305;23;20149;-82
2021/05/19 09:41:25;;;;;;;5.78;3.25;;;19.50;52.30;;;;;;6025369;23;20193;-83
2021/05/19 09:43:56;;;;;;;8.77;3.40;;;19.50;52.50;;;;;;6015780;23;20151;-82
2021/05/19 09:46:34;;;;;;;8.95;3.38;;;19.60;52.20;;;;;;5968782;23;20191;-82
2021/05/19 09:49:22;;;;;;;7.07;3.58;;;19.60;52.10;;;;;;5992773;23;20182;-84
2021/05/19 09:51:51;;;;;;;5.78;3.08;;;19.50;52.10;;;;;;6012653;23;20143;-84
2021/05/19 09:54:32;;;;;;;9.52;3.17;;;19.50;52.30;;;;;;5988507;23;20170;-85
2021/05/19 09:57:04;;;;;;;5.75;3.47;;;19.50;52.60;;;;;;5987723;23;20149;-83
2021/05/19 09:59:31;;;;;;;6.45;3.30;;;19.50;52.60;;;;;;5986531;23;20251;-83
2021/05/19 10:02:00;;;;;;;8.05;3.55;;;19.50;52.50;;;;;;5987392;23;20595;-81
2021/05/19 10:04:39;;;;;;;8.05;3.58;;;19.50;52.50;;;;;;5966321;23;20517;-82
2021/05/19 10:07:16;;;;;;;6.45;3.30;;;19.60;52.40;;;;;;6015505;23;20222;-80
2021/05/19 10:09:48;;;;;;;7.90;3.42;;;19.60;52.40;;;;;;5990950;23;20195;-81
2021/05/19 10:12:14;;;;;;;8.45;3.35;;;19.50;52.30;;;;;;5967888;23;20643;-82
2021/05/19 10:14:40;;;;;;;7.15;3.83;;;19.60;52.20;;;;;;5969322;23;20206;-80
2021/05/19 10:17:08;;;;;;;7.03;3.72;;;19.60;52.20;;;;;;5989769;23;20188;-81
2021/05/19 10:20:00;;;;;;;5.13;2.97;;;19.60;52.20;;;;;;6025903;23;20186;-82
2021/05/19 10:22:28;;;;;;;7.78;3.22;;;19.60;52.20;;;;;;6162978;23;20131;-80
2021/05/19 10:25:01;;;;;;;6.63;3.60;;;19.60;52.20;;;;;;6141182;23;20147;-81
2021/05/19 10:27:56;;;;;;;3.63;3.20;;;19.60;52.30;;;;;;6167589;23;20503;-81
2021/05/19 10:40:53;;;;;;;5.07;3.33;;;19.50;52.40;;;;;;6137535;23;20198;-80
2021/05/19 10:43:59;;;;;;;6.43;3.72;;;19.50;52.70;;;;;;6116716;23;20708;-80
2021/05/19 10:47:13;;;;;;;6.00;3.30;;;19.50;52.70;;;;;;6127311;23;20199;-80
2021/05/19 10:50:13;;;;;;;8.85;3.70;;;19.50;52.60;;;;;;6105065;23;20194;-81
2021/05/19 10:58:31;;;;;;;6.03;3.22;;;19.60;52.50;;;;;;6105261;23;20275;-84
2021/05/19 11:00:57;;;;;;;6.32;3.05;;;19.70;52.30;;;;;;6089149;23;20147;-83
2021/05/19 11:04:01;;;;;;;5.63;3.20;;;19.50;52.40;;;;;;6160581;23;20141;-83
2021/05/19 11:06:29;;;;;;;9.13;3.72;;;19.60;52.50;;;;;;6187315;23;20135;-82
2021/05/19 11:09:28;;;;;;;4.30;3.30;;;19.50;52.60;;;;;;6187013;23;20180;-81
2021/05/19 11:12:18;;;;;;;4.45;3.25;;;19.40;52.70;;;;;;6160879;23;20146;-81
2021/05/19 11:14:47;;;;;;;3.55;3.05;;;19.50;52.60;;;;;;6067258;23;20245;-82
2021/05/19 11:17:21;;;;;;;8.82;3.50;;;19.40;52.70;;;;;;6044036;23;20149;-83
2021/05/19 11:19:48;;;;;;;7.05;3.47;;;19.50;52.60;;;;;;6069390;23;20192;-82
2021/05/19 11:22:15;;;;;;;3.35;2.80;;;19.60;52.40;;;;;;6019703;23;20153;-81
2021/05/19 11:25:07;;;;;;;7.25;3.70;;;19.60;52.20;;;;;;6043708;23;20142;-81
2021/05/19 11:27:35;;;;;;;4.68;3.30;;;19.70;52.20;;;;;;6040707;23;20157;-80
2021/05/19 11:30:06;;;;;;;4.60;3.30;;;19.60;52.30;;;;;;6019901;23;20153;-82
2021/05/19 11:32:34;;;;;;;5.90;3.08;;;19.60;52.40;;;;;;6067261;23;20161;-82
2021/05/19 11:35:22;;;;;;;6.90;3.40;;;19.60;52.30;;;;;;6067767;23;20523;-81
2021/05/19 11:37:54;;;;;;;6.88;3.35;;;19.60;52.40;;;;;;6020730;23;20205;-84
2021/05/19 11:40:20;;;;;;;8.05;3.75;;;19.60;52.40;;;;;;6019419;23;20625;-81
2021/05/19 11:42:56;;;;;;;4.38;3.30;;;19.60;52.60;;;;;;6018826;23;20199;-83
2021/05/19 11:45:26;;;;;;;7.63;3.38;;;19.60;52.50;;;;;;6019152;23;20160;-84
2021/05/19 11:47:53;;;;;;;6.40;3.25;;;19.60;52.50;;;;;;6043305;23;20183;-81
2021/05/19 11:50:24;;;;;;;3.67;3.30;;;19.60;52.50;;;;;;6020100;23;20236;-81
2021/05/19 11:52:50;;;;;;;4.60;3.38;;;19.60;52.40;;;;;;6131351;23;20586;-80
2021/05/19 11:55:33;;;;;;;4.97;3.35;;;19.60;52.20;;;;;;6188546;23;20127;-81
2021/05/19 11:58:27;;;;;;;5.32;3.28;;;19.60;52.30;;;;;;6187943;23;20142;-84
2021/05/19 12:01:07;;;;;;;5.60;3.30;;;19.60;52.40;;;;;;6161724;23;20135;-82
2021/05/19 12:03:47;;;;;;;5.30;2.88;;;19.60;52.50;;;;;;6187571;23;20266;-82
2021/05/19 12:06:23;;;;;;;5.38;3.88;;;19.60;52.40;;;;;;6168997;23;20126;-84
2021/05/19 12:08:49;;;;;;;6.55;3.45;;;19.60;52.30;;;;;;6139691;23;20182;-82
2021/05/19 12:11:21;;;;;;;9.00;3.33;;;19.60;52.20;;;;;;6140334;23;20647;-85
2021/05/19 12:13:53;;;;;;;4.30;3.33;;;19.70;52.30;;;;;;6136625;23;20153;-81
2021/05/19 12:16:34;;;;;;;6.80;3.47;;;19.70;52.30;;;;;;6160655;23;20150;-80
2021/05/19 12:19:29;;;;;;;4.45;3.38;;;19.60;52.30;;;;;;6162400;23;20218;-80
2021/05/19 12:22:17;;;;;;;3.75;3.17;;;19.60;52.50;;;;;;6155885;23;20155;-85
2021/05/19 12:24:43;;;;;;;5.05;3.25;;;19.60;52.30;;;;;;6137431;23;20170;-82
2021/05/19 12:27:09;;;;;;;4.70;3.58;;;19.60;52.30;;;;;;6160322;23;20131;-81
2021/05/19 12:29:44;;;;;;;4.20;3.40;;;19.60;52.40;;;;;;6136660;23;20197;-80
2021/05/19 12:32:11;;;;;;;6.28;3.25;;;19.60;52.50;;;;;;6185052;23;20126;-81
2021/05/19 12:34:38;;;;;;;3.90;3.30;;;19.60;52.50;;;;;;6185059;23;20168;-80
2021/05/19 12:37:05;;;;;;;4.90;3.05;;;19.60;52.50;;;;;;6186043;23;20568;-79
2021/05/19 12:39:32;;;;;;;4.88;3.40;;;19.60;52.60;;;;;;6185826;23;20163;-81
2021/05/19 12:41:58;;;;;;;5.60;3.33;;;19.50;52.60;;;;;;6161753;23;20150;-82
2021/05/19 12:44:40;;;;;;;5.13;3.20;;;19.60;52.50;;;;;;6137460;23;20207;-84
2021/05/19 12:47:09;;;;;;;3.40;3.10;;;19.60;52.60;;;;;;6142293;23;20211;-84
2021/05/19 12:49:37;;;;;;;3.97;3.50;;;19.60;52.40;;;;;;6136540;23;20182;-80
2021/05/19 12:52:28;;;;;;;3.92;3.08;;;19.60;52.40;;;;;;6188663;23;20139;-82
2021/05/19 12:54:55;;;;;;;4.13;3.42;;;19.60;52.60;;;;;;6158362;23;20203;-81
2021/05/19 12:57:34;;;;;;;4.45;3.60;;;19.60;52.50;;;;;;6138722;23;20479;-84
2021/05/19 13:00:14;;;;;;;5.53;3.50;;;19.60;52.40;;;;;;6114424;23;20150;-82
2021/05/19 13:02:40;;;;;;;3.75;3.25;;;19.60;52.50;;;;;;6116191;23;20206;-80
2021/05/19 13:05:20;;;;;;;3.83;3.38;;;19.60;52.60;;;;;;6185892;23;20131;-81
2021/05/19 13:07:50;;;;;;;5.82;3.45;;;19.60;52.30;;;;;;6165108;23;20197;-81
2021/05/19 13:10:23;;;;;;;3.63;3.25;;;19.60;52.40;;;;;;6136161;23;20139;-82
2021/05/19 13:12:58;;;;;;;5.75;3.13;;;19.60;52.30;;;;;;6186834;23;20182;-84
2021/05/19 13:15:37;;;;;;;4.13;3.20;;;19.70;52.20;;;;;;6160376;23;20203;-83
2021/05/19 13:18:12;;;;;;;3.80;3.20;;;19.70;52.30;;;;;;6162203;23;20589;-82
2021/05/19 13:20:47;;;;;;;4.25;3.50;;;19.60;52.40;;;;;;6161819;23;20129;-82